sensor_id;sensor_type;location;lat;lon;timestamp;P1;durP1;ratioP1;P2;durP2;ratioP2
9048;SDS011;4559;47.252;9.592;2022-07-24T00:02:02;10.82;;;5.60;;
9048;SDS011;4559;47.252;9.592;2022-07-24T00:04:28;6.47;;;5.57;;
9048;SDS011;4559;47.252;9.592;2022-07-24T00:06:53;6.97;;;4.60;;
9048;SDS011;4559;47.252;9.592;2022-07-24T00:09:19;6.53;;;5.10;;
9048;SDS011;4559;47.252;9.592;2022-07-24T00:11:44;6.00;;;4.87;;
9048;SDS011;4559;47.252;9.592;2022-07-24T00:14:10;5.60;;;5.00;;
9048;SDS011;4559;47.252;9.592;2022-07-24T00:16:36;9.43;;;5.03;;
9048;SDS011;4559;47.252;9.592;2022-07-24T00:19:02;6.80;;;5.35;;
9048;SDS011;4559;47.252;9.592;2022-07-24T00:21:27;8.13;;;5.38;;
9048;SDS011;4559;47.252;9.592;2022-07-24T00:23:53;6.83;;;5.10;;
9048;SDS011;4559;47.252;9.592;2022-07-24T00:26:19;6.13;;;5.30;;
9048;SDS011;4559;47.252;9.592;2022-07-24T00:28:45;6.18;;;4.82;;
9048;SDS011;4559;47.252;9.592;2022-07-24T00:31:10;6.57;;;4.75;;
9048;SDS011;4559;47.252;9.592;2022-07-24T00:33:36;5.68;;;4.70;;
9048;SDS011;4559;47.252;9.592;2022-07-24T00:36:02;6.32;;;4.95;;
9048;SDS011;4559;47.252;9.592;2022-07-24T00:38:28;4.82;;;4.22;;
9048;SDS011;4559;47.252;9.592;2022-07-24T00:40:54;6.60;;;5.07;;
9048;SDS011;4559;47.252;9.592;2022-07-24T00:43:19;5.17;;;4.63;;
9048;SDS011;4559;47.252;9.592;2022-07-24T00:45:46;7.80;;;4.97;;
9048;SDS011;4559;47.252;9.592;2022-07-24T00:48:11;6.87;;;4.90;;
9048;SDS011;4559;47.252;9.592;2022-07-24T00:50:37;6.38;;;4.88;;
9048;SDS011;4559;47.252;9.592;2022-07-24T00:53:04;6.32;;;4.85;;
9048;SDS011;4559;47.252;9.592;2022-07-24T00:55:29;7.35;;;4.90;;
9048;SDS011;4559;47.252;9.592;2022-07-24T00:57:55;5.93;;;4.77;;
9048;SDS011;4559;47.252;9.592;2022-07-24T01:00:21;5.03;;;4.53;;
9048;SDS011;4559;47.252;9.592;2022-07-24T01:02:48;8.02;;;5.15;;
9048;SDS011;4559;47.252;9.592;2022-07-24T01:05:15;8.27;;;4.72;;
9048;SDS011;4559;47.252;9.592;2022-07-24T01:07:41;7.63;;;5.53;;
9048;SDS011;4559;47.252;9.592;2022-07-24T01:10:07;6.65;;;4.85;;
9048;SDS011;4559;47.252;9.592;2022-07-24T01:12:34;5.95;;;4.88;;
9048;SDS011;4559;47.252;9.592;2022-07-24T01:15:02;6.70;;;5.15;;
9048;SDS011;4559;47.252;9.592;2022-07-24T01:17:30;6.93;;;4.80;;
9048;SDS011;4559;47.252;9.592;2022-07-24T01:19:56;7.65;;;4.60;;
9048;SDS011;4559;47.252;9.592;2022-07-24T01:22:23;6.70;;;5.00;;
9048;SDS011;4559;47.252;9.592;2022-07-24T01:24:50;6.40;;;4.93;;
9048;SDS011;4559;47.252;9.592;2022-07-24T01:27:16;5.95;;;4.65;;
9048;SDS011;4559;47.252;9.592;2022-07-24T01:29:42;7.40;;;4.72;;
9048;SDS011;4559;47.252;9.592;2022-07-24T01:32:08;6.03;;;4.80;;
9048;SDS011;4559;47.252;9.592;2022-07-24T01:34:34;6.43;;;4.68;;
9048;SDS011;4559;47.252;9.592;2022-07-24T01:36:59;6.73;;;5.13;;
9048;SDS011;4559;47.252;9.592;2022-07-24T01:39:25;6.13;;;5.30;;
9048;SDS011;4559;47.252;9.592;2022-07-24T01:41:51;7.07;;;5.83;;
9048;SDS011;4559;47.252;9.592;2022-07-24T01:44:16;6.13;;;4.93;;
9048;SDS011;4559;47.252;9.592;2022-07-24T01:46:42;6.35;;;4.60;;
9048;SDS011;4559;47.252;9.592;2022-07-24T01:49:08;7.87;;;5.27;;
9048;SDS011;4559;47.252;9.592;2022-07-24T01:51:34;5.95;;;4.97;;
9048;SDS011;4559;47.252;9.592;2022-07-24T01:54:00;10.18;;;5.05;;
9048;SDS011;4559;47.252;9.592;2022-07-24T01:56:27;8.00;;;5.25;;
9048;SDS011;4559;47.252;9.592;2022-07-24T01:58:53;5.32;;;4.43;;
9048;SDS011;4559;47.252;9.592;2022-07-24T02:01:19;6.20;;;5.15;;
9048;SDS011;4559;47.252;9.592;2022-07-24T02:03:45;6.40;;;5.57;;
9048;SDS011;4559;47.252;9.592;2022-07-24T02:06:11;5.60;;;4.75;;
9048;SDS011;4559;47.252;9.592;2022-07-24T02:08:37;5.57;;;4.87;;
9048;SDS011;4559;47.252;9.592;2022-07-24T02:11:02;6.68;;;4.53;;
9048;SDS011;4559;47.252;9.592;2022-07-24T02:13:29;6.25;;;4.50;;
9048;SDS011;4559;47.252;9.592;2022-07-24T02:15:54;7.78;;;5.75;;
9048;SDS011;4559;47.252;9.592;2022-07-24T02:18:20;8.60;;;4.97;;
9048;SDS011;4559;47.252;9.592;2022-07-24T02:20:45;5.82;;;4.80;;
9048;SDS011;4559;47.252;9.592;2022-07-24T02:23:11;7.10;;;5.20;;
9048;SDS011;4559;47.252;9.592;2022-07-24T02:25:42;6.28;;;4.88;;
9048;SDS011;4559;47.252;9.592;2022-07-24T02:28:15;7.90;;;5.40;;
9048;SDS011;4559;47.252;9.592;2022-07-24T02:30:41;6.20;;;4.78;;
9048;SDS011;4559;47.252;9.592;2022-07-24T02:33:07;7.27;;;4.90;;
9048;SDS011;4559;47.252;9.592;2022-07-24T02:35:33;6.82;;;4.90;;
9048;SDS011;4559;47.252;9.592;2022-07-24T02:37:59;6.70;;;4.40;;
9048;SDS011;4559;47.252;9.592;2022-07-24T02:40:25;5.83;;;5.23;;
9048;SDS011;4559;47.252;9.592;2022-07-24T02:42:51;7.93;;;5.50;;
9048;SDS011;4559;47.252;9.592;2022-07-24T02:45:16;5.07;;;4.57;;
9048;SDS011;4559;47.252;9.592;2022-07-24T02:47:47;5.95;;;4.80;;
9048;SDS011;4559;47.252;9.592;2022-07-24T02:50:14;6.55;;;4.93;;
9048;SDS011;4559;47.252;9.592;2022-07-24T02:52:41;7.25;;;4.70;;
9048;SDS011;4559;47.252;9.592;2022-07-24T02:55:07;5.57;;;4.78;;
9048;SDS011;4559;47.252;9.592;2022-07-24T02:57:32;7.60;;;5.10;;
9048;SDS011;4559;47.252;9.592;2022-07-24T02:59:58;5.80;;;4.40;;
9048;SDS011;4559;47.252;9.592;2022-07-24T03:02:24;6.90;;;4.57;;
9048;SDS011;4559;47.252;9.592;2022-07-24T03:04:49;7.72;;;5.57;;
9048;SDS011;4559;47.252;9.592;2022-07-24T03:07:15;9.23;;;5.60;;
9048;SDS011;4559;47.252;9.592;2022-07-24T03:09:41;5.55;;;4.45;;
9048;SDS011;4559;47.252;9.592;2022-07-24T03:12:06;5.90;;;4.63;;
9048;SDS011;4559;47.252;9.592;2022-07-24T03:14:32;7.60;;;4.93;;
9048;SDS011;4559;47.252;9.592;2022-07-24T03:16:58;6.53;;;5.07;;
9048;SDS011;4559;47.252;9.592;2022-07-24T03:19:24;6.40;;;4.50;;
9048;SDS011;4559;47.252;9.592;2022-07-24T03:21:49;6.22;;;4.97;;
9048;SDS011;4559;47.252;9.592;2022-07-24T03:24:15;5.47;;;4.80;;
9048;SDS011;4559;47.252;9.592;2022-07-24T03:26:41;6.28;;;4.90;;
9048;SDS011;4559;47.252;9.592;2022-07-24T03:29:07;6.00;;;4.70;;
9048;SDS011;4559;47.252;9.592;2022-07-24T03:31:32;6.15;;;4.95;;
9048;SDS011;4559;47.252;9.592;2022-07-24T03:33:58;6.60;;;4.73;;
9048;SDS011;4559;47.252;9.592;2022-07-24T03:36:24;6.70;;;4.63;;
9048;SDS011;4559;47.252;9.592;2022-07-24T03:38:49;7.20;;;5.13;;
9048;SDS011;4559;47.252;9.592;2022-07-24T03:41:15;6.97;;;5.10;;
9048;SDS011;4559;47.252;9.592;2022-07-24T03:43:40;7.60;;;5.70;;
9048;SDS011;4559;47.252;9.592;2022-07-24T03:46:06;5.72;;;5.13;;
9048;SDS011;4559;47.252;9.592;2022-07-24T03:48:32;5.63;;;4.60;;
9048;SDS011;4559;47.252;9.592;2022-07-24T03:50:57;12.90;;;5.70;;
9048;SDS011;4559;47.252;9.592;2022-07-24T03:53:23;8.32;;;5.03;;
9048;SDS011;4559;47.252;9.592;2022-07-24T03:55:48;5.87;;;4.77;;
9048;SDS011;4559;47.252;9.592;2022-07-24T03:58:14;5.28;;;4.53;;
9048;SDS011;4559;47.252;9.592;2022-07-24T04:00:40;6.30;;;4.90;;
9048;SDS011;4559;47.252;9.592;2022-07-24T04:03:05;7.28;;;5.07;;
9048;SDS011;4559;47.252;9.592;2022-07-24T04:05:31;5.70;;;4.73;;
9048;SDS011;4559;47.252;9.592;2022-07-24T04:07:57;7.55;;;4.93;;
9048;SDS011;4559;47.252;9.592;2022-07-24T04:10:22;5.57;;;4.70;;
9048;SDS011;4559;47.252;9.592;2022-07-24T04:12:48;6.40;;;4.90;;
9048;SDS011;4559;47.252;9.592;2022-07-24T04:15:13;6.70;;;5.03;;
9048;SDS011;4559;47.252;9.592;2022-07-24T04:17:42;8.30;;;5.78;;
9048;SDS011;4559;47.252;9.592;2022-07-24T04:20:08;7.82;;;4.95;;
9048;SDS011;4559;47.252;9.592;2022-07-24T04:22:35;8.73;;;5.22;;
9048;SDS011;4559;47.252;9.592;2022-07-24T04:25:01;5.07;;;4.47;;
9048;SDS011;4559;47.252;9.592;2022-07-24T04:27:27;5.95;;;4.80;;
9048;SDS011;4559;47.252;9.592;2022-07-24T04:29:53;7.50;;;5.07;;
9048;SDS011;4559;47.252;9.592;2022-07-24T04:32:19;6.68;;;4.70;;
9048;SDS011;4559;47.252;9.592;2022-07-24T04:34:44;6.15;;;4.43;;
9048;SDS011;4559;47.252;9.592;2022-07-24T04:37:10;7.93;;;5.33;;
9048;SDS011;4559;47.252;9.592;2022-07-24T04:39:35;6.55;;;5.60;;
9048;SDS011;4559;47.252;9.592;2022-07-24T04:42:01;5.77;;;4.50;;
9048;SDS011;4559;47.252;9.592;2022-07-24T04:44:27;5.80;;;4.73;;
9048;SDS011;4559;47.252;9.592;2022-07-24T04:46:52;5.75;;;4.60;;
9048;SDS011;4559;47.252;9.592;2022-07-24T04:49:18;6.33;;;5.03;;
9048;SDS011;4559;47.252;9.592;2022-07-24T04:51:43;5.82;;;4.25;;
9048;SDS011;4559;47.252;9.592;2022-07-24T04:54:09;6.53;;;4.73;;
9048;SDS011;4559;47.252;9.592;2022-07-24T04:56:35;8.73;;;5.18;;
9048;SDS011;4559;47.252;9.592;2022-07-24T04:59:00;6.17;;;5.20;;
9048;SDS011;4559;47.252;9.592;2022-07-24T05:01:27;6.15;;;4.50;;
9048;SDS011;4559;47.252;9.592;2022-07-24T05:03:53;5.88;;;4.47;;
9048;SDS011;4559;47.252;9.592;2022-07-24T05:06:21;7.43;;;4.57;;
9048;SDS011;4559;47.252;9.592;2022-07-24T05:08:50;7.65;;;5.07;;
9048;SDS011;4559;47.252;9.592;2022-07-24T05:11:16;5.30;;;4.13;;
9048;SDS011;4559;47.252;9.592;2022-07-24T05:13:41;5.23;;;4.53;;
9048;SDS011;4559;47.252;9.592;2022-07-24T05:16:07;7.50;;;5.47;;
9048;SDS011;4559;47.252;9.592;2022-07-24T05:18:33;7.30;;;4.60;;
9048;SDS011;4559;47.252;9.592;2022-07-24T05:20:59;6.05;;;4.88;;
9048;SDS011;4559;47.252;9.592;2022-07-24T05:23:24;6.00;;;5.20;;
9048;SDS011;4559;47.252;9.592;2022-07-24T05:25:50;11.85;;;8.70;;
9048;SDS011;4559;47.252;9.592;2022-07-24T05:28:16;21.90;;;13.23;;
9048;SDS011;4559;47.252;9.592;2022-07-24T05:30:42;9.93;;;6.70;;
9048;SDS011;4559;47.252;9.592;2022-07-24T05:33:07;6.60;;;5.05;;
9048;SDS011;4559;47.252;9.592;2022-07-24T05:35:33;5.60;;;4.73;;
9048;SDS011;4559;47.252;9.592;2022-07-24T05:37:58;6.28;;;4.22;;
9048;SDS011;4559;47.252;9.592;2022-07-24T05:40:24;7.70;;;5.53;;
9048;SDS011;4559;47.252;9.592;2022-07-24T05:42:50;6.57;;;4.95;;
9048;SDS011;4559;47.252;9.592;2022-07-24T05:45:15;6.07;;;4.73;;
9048;SDS011;4559;47.252;9.592;2022-07-24T05:47:41;7.30;;;5.13;;
9048;SDS011;4559;47.252;9.592;2022-07-24T05:50:11;7.75;;;5.15;;
9048;SDS011;4559;47.252;9.592;2022-07-24T05:52:38;5.65;;;4.68;;
9048;SDS011;4559;47.252;9.592;2022-07-24T05:55:05;6.70;;;4.50;;
9048;SDS011;4559;47.252;9.592;2022-07-24T05:57:31;6.05;;;4.70;;
9048;SDS011;4559;47.252;9.592;2022-07-24T05:59:57;6.17;;;4.67;;
9048;SDS011;4559;47.252;9.592;2022-07-24T06:02:23;7.57;;;4.90;;
9048;SDS011;4559;47.252;9.592;2022-07-24T06:04:48;8.10;;;5.00;;
9048;SDS011;4559;47.252;9.592;2022-07-24T06:07:14;7.55;;;5.07;;
9048;SDS011;4559;47.252;9.592;2022-07-24T06:09:39;5.40;;;4.13;;
9048;SDS011;4559;47.252;9.592;2022-07-24T06:12:05;7.30;;;4.25;;
9048;SDS011;4559;47.252;9.592;2022-07-24T06:14:32;4.77;;;4.20;;
9048;SDS011;4559;47.252;9.592;2022-07-24T06:16:58;6.40;;;4.30;;
9048;SDS011;4559;47.252;9.592;2022-07-24T06:19:24;6.00;;;4.53;;
9048;SDS011;4559;47.252;9.592;2022-07-24T06:21:50;7.40;;;5.30;;
9048;SDS011;4559;47.252;9.592;2022-07-24T06:24:16;9.10;;;6.50;;
9048;SDS011;4559;47.252;9.592;2022-07-24T06:26:42;6.45;;;5.20;;
9048;SDS011;4559;47.252;9.592;2022-07-24T06:29:08;6.70;;;5.18;;
9048;SDS011;4559;47.252;9.592;2022-07-24T06:31:34;6.80;;;4.93;;
9048;SDS011;4559;47.252;9.592;2022-07-24T06:33:59;6.90;;;5.00;;
9048;SDS011;4559;47.252;9.592;2022-07-24T06:36:25;5.83;;;4.40;;
9048;SDS011;4559;47.252;9.592;2022-07-24T06:38:52;5.82;;;4.68;;
9048;SDS011;4559;47.252;9.592;2022-07-24T06:41:18;5.00;;;4.37;;
9048;SDS011;4559;47.252;9.592;2022-07-24T06:43:43;5.25;;;4.28;;
9048;SDS011;4559;47.252;9.592;2022-07-24T06:46:09;6.13;;;4.40;;
9048;SDS011;4559;47.252;9.592;2022-07-24T06:48:35;5.38;;;4.88;;
9048;SDS011;4559;47.252;9.592;2022-07-24T06:51:00;5.63;;;4.75;;
9048;SDS011;4559;47.252;9.592;2022-07-24T06:53:26;6.50;;;5.40;;
9048;SDS011;4559;47.252;9.592;2022-07-24T06:55:52;6.18;;;4.70;;
9048;SDS011;4559;47.252;9.592;2022-07-24T06:58:19;6.55;;;5.03;;
9048;SDS011;4559;47.252;9.592;2022-07-24T07:00:46;6.88;;;5.00;;
9048;SDS011;4559;47.252;9.592;2022-07-24T07:03:12;6.30;;;5.10;;
9048;SDS011;4559;47.252;9.592;2022-07-24T07:05:38;6.53;;;5.32;;
9048;SDS011;4559;47.252;9.592;2022-07-24T07:08:03;7.47;;;4.87;;
9048;SDS011;4559;47.252;9.592;2022-07-24T07:10:29;5.70;;;4.75;;
9048;SDS011;4559;47.252;9.592;2022-07-24T07:12:55;5.70;;;4.80;;
9048;SDS011;4559;47.252;9.592;2022-07-24T07:15:21;6.80;;;5.10;;
9048;SDS011;4559;47.252;9.592;2022-07-24T07:17:48;6.40;;;5.30;;
9048;SDS011;4559;47.252;9.592;2022-07-24T07:20:13;6.15;;;5.15;;
9048;SDS011;4559;47.252;9.592;2022-07-24T07:22:40;6.87;;;5.10;;
9048;SDS011;4559;47.252;9.592;2022-07-24T07:25:06;4.95;;;4.45;;
9048;SDS011;4559;47.252;9.592;2022-07-24T07:27:32;5.60;;;4.97;;
9048;SDS011;4559;47.252;9.592;2022-07-24T07:29:58;6.47;;;5.13;;
9048;SDS011;4559;47.252;9.592;2022-07-24T07:32:24;6.78;;;5.03;;
9048;SDS011;4559;47.252;9.592;2022-07-24T07:34:49;6.03;;;5.17;;
9048;SDS011;4559;47.252;9.592;2022-07-24T07:37:15;5.57;;;4.67;;
9048;SDS011;4559;47.252;9.592;2022-07-24T07:39:41;5.55;;;4.55;;
9048;SDS011;4559;47.252;9.592;2022-07-24T07:42:06;6.87;;;4.97;;
9048;SDS011;4559;47.252;9.592;2022-07-24T07:44:32;5.43;;;4.63;;
9048;SDS011;4559;47.252;9.592;2022-07-24T07:46:58;6.50;;;4.82;;
9048;SDS011;4559;47.252;9.592;2022-07-24T07:49:23;5.70;;;4.97;;
9048;SDS011;4559;47.252;9.592;2022-07-24T07:51:49;6.67;;;5.20;;
9048;SDS011;4559;47.252;9.592;2022-07-24T07:54:16;5.13;;;4.63;;
9048;SDS011;4559;47.252;9.592;2022-07-24T07:56:42;6.40;;;4.57;;
9048;SDS011;4559;47.252;9.592;2022-07-24T07:59:08;5.82;;;4.82;;
9048;SDS011;4559;47.252;9.592;2022-07-24T08:01:33;6.73;;;4.63;;
9048;SDS011;4559;47.252;9.592;2022-07-24T08:03:59;6.80;;;5.38;;
9048;SDS011;4559;47.252;9.592;2022-07-24T08:06:25;5.60;;;4.88;;
9048;SDS011;4559;47.252;9.592;2022-07-24T08:08:51;5.00;;;4.47;;
9048;SDS011;4559;47.252;9.592;2022-07-24T08:11:16;5.20;;;4.60;;
9048;SDS011;4559;47.252;9.592;2022-07-24T08:13:42;6.00;;;5.00;;
9048;SDS011;4559;47.252;9.592;2022-07-24T08:16:08;6.68;;;5.97;;
9048;SDS011;4559;47.252;9.592;2022-07-24T08:18:33;6.22;;;4.43;;
9048;SDS011;4559;47.252;9.592;2022-07-24T08:20:59;12.73;;;4.53;;
9048;SDS011;4559;47.252;9.592;2022-07-24T08:23:25;5.67;;;5.07;;
9048;SDS011;4559;47.252;9.592;2022-07-24T08:25:50;5.72;;;4.82;;
9048;SDS011;4559;47.252;9.592;2022-07-24T08:28:16;7.72;;;5.10;;
9048;SDS011;4559;47.252;9.592;2022-07-24T08:30:42;8.60;;;6.78;;
9048;SDS011;4559;47.252;9.592;2022-07-24T08:33:08;16.37;;;11.03;;
9048;SDS011;4559;47.252;9.592;2022-07-24T08:35:34;5.72;;;5.03;;
9048;SDS011;4559;47.252;9.592;2022-07-24T08:38:00;6.30;;;5.03;;
9048;SDS011;4559;47.252;9.592;2022-07-24T08:40:26;5.82;;;4.43;;
9048;SDS011;4559;47.252;9.592;2022-07-24T08:42:58;5.18;;;4.68;;
9048;SDS011;4559;47.252;9.592;2022-07-24T08:45:25;5.32;;;4.55;;
9048;SDS011;4559;47.252;9.592;2022-07-24T08:47:51;4.90;;;4.40;;
9048;SDS011;4559;47.252;9.592;2022-07-24T08:50:17;5.37;;;4.47;;
9048;SDS011;4559;47.252;9.592;2022-07-24T08:52:42;5.50;;;4.53;;
9048;SDS011;4559;47.252;9.592;2022-07-24T08:55:09;4.97;;;4.50;;
9048;SDS011;4559;47.252;9.592;2022-07-24T08:57:35;5.33;;;4.20;;
9048;SDS011;4559;47.252;9.592;2022-07-24T09:00:01;5.33;;;4.83;;
9048;SDS011;4559;47.252;9.592;2022-07-24T09:02:27;6.87;;;5.80;;
9048;SDS011;4559;47.252;9.592;2022-07-24T09:04:57;7.38;;;5.35;;
9048;SDS011;4559;47.252;9.592;2022-07-24T09:07:25;5.40;;;4.63;;
9048;SDS011;4559;47.252;9.592;2022-07-24T09:10:00;7.15;;;5.00;;
9048;SDS011;4559;47.252;9.592;2022-07-24T09:12:32;6.60;;;5.00;;
9048;SDS011;4559;47.252;9.592;2022-07-24T09:14:59;6.85;;;4.60;;
9048;SDS011;4559;47.252;9.592;2022-07-24T09:17:26;5.00;;;4.50;;
9048;SDS011;4559;47.252;9.592;2022-07-24T09:19:56;6.95;;;5.78;;
9048;SDS011;4559;47.252;9.592;2022-07-24T09:25:37;5.10;;;4.60;;
9048;SDS011;4559;47.252;9.592;2022-07-24T09:27:44;6.43;;;4.87;;
9048;SDS011;4559;47.252;9.592;2022-07-24T09:30:36;6.43;;;5.03;;
9048;SDS011;4559;47.252;9.592;2022-07-24T09:35:39;7.00;;;4.80;;
9048;SDS011;4559;47.252;9.592;2022-07-24T09:38:10;6.50;;;5.00;;
9048;SDS011;4559;47.252;9.592;2022-07-24T09:40:52;5.10;;;4.60;;
9048;SDS011;4559;47.252;9.592;2022-07-24T09:43:26;4.60;;;4.20;;
9048;SDS011;4559;47.252;9.592;2022-07-24T09:45:58;5.93;;;5.33;;
9048;SDS011;4559;47.252;9.592;2022-07-24T09:48:25;6.50;;;5.25;;
9048;SDS011;4559;47.252;9.592;2022-07-24T09:50:58;5.32;;;4.57;;
9048;SDS011;4559;47.252;9.592;2022-07-24T09:53:27;5.60;;;4.90;;
9048;SDS011;4559;47.252;9.592;2022-07-24T09:55:55;7.43;;;5.72;;
9048;SDS011;4559;47.252;9.592;2022-07-24T09:58:25;5.82;;;4.88;;
9048;SDS011;4559;47.252;9.592;2022-07-24T10:00:55;6.72;;;5.00;;
9048;SDS011;4559;47.252;9.592;2022-07-24T10:03:25;5.22;;;4.72;;
9048;SDS011;4559;47.252;9.592;2022-07-24T10:06:02;7.87;;;5.07;;
9048;SDS011;4559;47.252;9.592;2022-07-24T10:08:30;5.55;;;4.45;;
9048;SDS011;4559;47.252;9.592;2022-07-24T10:10:57;6.03;;;5.53;;
9048;SDS011;4559;47.252;9.592;2022-07-24T10:13:26;6.88;;;4.80;;
9048;SDS011;4559;47.252;9.592;2022-07-24T10:21:30;6.35;;;5.00;;
9048;SDS011;4559;47.252;9.592;2022-07-24T10:31:34;5.97;;;4.95;;
9048;SDS011;4559;47.252;9.592;2022-07-24T10:34:01;5.60;;;4.70;;
9048;SDS011;4559;47.252;9.592;2022-07-24T10:36:54;5.43;;;4.85;;
9048;SDS011;4559;47.252;9.592;2022-07-24T10:39:48;5.32;;;4.78;;
9048;SDS011;4559;47.252;9.592;2022-07-24T10:45:35;5.55;;;5.05;;
9048;SDS011;4559;47.252;9.592;2022-07-24T10:53:28;9.27;;;5.73;;
9048;SDS011;4559;47.252;9.592;2022-07-24T10:58:59;5.28;;;4.78;;
9048;SDS011;4559;47.252;9.592;2022-07-24T11:09:17;5.20;;;4.70;;
9048;SDS011;4559;47.252;9.592;2022-07-24T11:17:34;5.77;;;4.90;;
9048;SDS011;4559;47.252;9.592;2022-07-24T11:20:08;10.10;;;4.97;;
9048;SDS011;4559;47.252;9.592;2022-07-24T11:22:37;5.03;;;4.55;;
9048;SDS011;4559;47.252;9.592;2022-07-24T11:25:09;5.18;;;4.68;;
9048;SDS011;4559;47.252;9.592;2022-07-24T11:27:43;5.30;;;4.80;;
9048;SDS011;4559;47.252;9.592;2022-07-24T11:30:11;5.50;;;4.82;;
9048;SDS011;4559;47.252;9.592;2022-07-24T11:32:38;7.25;;;5.85;;
9048;SDS011;4559;47.252;9.592;2022-07-24T11:35:05;33.95;;;31.60;;
9048;SDS011;4559;47.252;9.592;2022-07-24T11:37:33;52.17;;;36.47;;
9048;SDS011;4559;47.252;9.592;2022-07-24T11:40:01;7.07;;;6.17;;
9048;SDS011;4559;47.252;9.592;2022-07-24T11:42:28;5.25;;;4.75;;
9048;SDS011;4559;47.252;9.592;2022-07-24T11:44:56;5.20;;;4.70;;
9048;SDS011;4559;47.252;9.592;2022-07-24T11:47:23;4.72;;;4.32;;
9048;SDS011;4559;47.252;9.592;2022-07-24T11:49:53;5.05;;;4.38;;
9048;SDS011;4559;47.252;9.592;2022-07-24T11:52:22;4.85;;;4.35;;
9048;SDS011;4559;47.252;9.592;2022-07-24T11:54:56;5.50;;;4.43;;
9048;SDS011;4559;47.252;9.592;2022-07-24T11:57:30;6.03;;;4.70;;
9048;SDS011;4559;47.252;9.592;2022-07-24T12:00:00;5.30;;;4.80;;
9048;SDS011;4559;47.252;9.592;2022-07-24T12:02:28;5.63;;;4.60;;
9048;SDS011;4559;47.252;9.592;2022-07-24T12:04:54;4.75;;;4.28;;
9048;SDS011;4559;47.252;9.592;2022-07-24T12:07:21;6.45;;;5.15;;
9048;SDS011;4559;47.252;9.592;2022-07-24T12:09:50;6.65;;;4.50;;
9048;SDS011;4559;47.252;9.592;2022-07-24T12:12:27;7.22;;;5.80;;
9048;SDS011;4559;47.252;9.592;2022-07-24T12:15:07;7.40;;;5.70;;
9048;SDS011;4559;47.252;9.592;2022-07-24T12:20:23;6.85;;;5.90;;
9048;SDS011;4559;47.252;9.592;2022-07-24T12:23:00;5.53;;;5.03;;
9048;SDS011;4559;47.252;9.592;2022-07-24T12:25:28;5.65;;;4.75;;
9048;SDS011;4559;47.252;9.592;2022-07-24T12:30:47;6.00;;;4.55;;
9048;SDS011;4559;47.252;9.592;2022-07-24T12:41:15;6.32;;;5.10;;
9048;SDS011;4559;47.252;9.592;2022-07-24T12:43:46;5.28;;;4.53;;
9048;SDS011;4559;47.252;9.592;2022-07-24T12:46:12;5.25;;;4.75;;
9048;SDS011;4559;47.252;9.592;2022-07-24T12:48:38;5.37;;;4.87;;
9048;SDS011;4559;47.252;9.592;2022-07-24T12:51:04;5.27;;;4.63;;
9048;SDS011;4559;47.252;9.592;2022-07-24T12:53:32;6.83;;;5.40;;
9048;SDS011;4559;47.252;9.592;2022-07-24T12:56:20;8.25;;;5.00;;
9048;SDS011;4559;47.252;9.592;2022-07-24T12:58:52;6.32;;;4.82;;
9048;SDS011;4559;47.252;9.592;2022-07-24T13:01:21;5.25;;;4.75;;
9048;SDS011;4559;47.252;9.592;2022-07-24T13:06:31;10.25;;;4.88;;
9048;SDS011;4559;47.252;9.592;2022-07-24T13:08:58;5.18;;;4.63;;
9048;SDS011;4559;47.252;9.592;2022-07-24T13:11:23;5.77;;;5.07;;
9048;SDS011;4559;47.252;9.592;2022-07-24T13:13:49;6.50;;;5.00;;
9048;SDS011;4559;47.252;9.592;2022-07-24T13:16:15;5.50;;;4.93;;
9048;SDS011;4559;47.252;9.592;2022-07-24T13:18:40;5.10;;;4.60;;
9048;SDS011;4559;47.252;9.592;2022-07-24T13:21:06;6.70;;;4.90;;
9048;SDS011;4559;47.252;9.592;2022-07-24T13:23:32;5.23;;;4.37;;
9048;SDS011;4559;47.252;9.592;2022-07-24T13:25:57;5.30;;;4.80;;
9048;SDS011;4559;47.252;9.592;2022-07-24T13:28:23;5.53;;;4.80;;
9048;SDS011;4559;47.252;9.592;2022-07-24T13:30:49;5.18;;;4.65;;
9048;SDS011;4559;47.252;9.592;2022-07-24T13:33:14;5.18;;;4.68;;
9048;SDS011;4559;47.252;9.592;2022-07-24T13:35:40;5.72;;;4.68;;
9048;SDS011;4559;47.252;9.592;2022-07-24T13:38:05;6.10;;;5.28;;
9048;SDS011;4559;47.252;9.592;2022-07-24T13:40:31;5.15;;;4.60;;
9048;SDS011;4559;47.252;9.592;2022-07-24T13:42:57;6.07;;;4.57;;
9048;SDS011;4559;47.252;9.592;2022-07-24T13:45:22;5.35;;;4.50;;
9048;SDS011;4559;47.252;9.592;2022-07-24T13:47:48;5.20;;;4.60;;
9048;SDS011;4559;47.252;9.592;2022-07-24T13:50:14;5.50;;;5.00;;
9048;SDS011;4559;47.252;9.592;2022-07-24T13:52:39;5.17;;;4.67;;
9048;SDS011;4559;47.252;9.592;2022-07-24T13:55:06;5.57;;;4.90;;
9048;SDS011;4559;47.252;9.592;2022-07-24T13:57:31;6.32;;;4.40;;
9048;SDS011;4559;47.252;9.592;2022-07-24T13:59:57;5.63;;;4.60;;
9048;SDS011;4559;47.252;9.592;2022-07-24T14:02:23;6.20;;;5.00;;
9048;SDS011;4559;47.252;9.592;2022-07-24T14:04:48;5.55;;;5.03;;
9048;SDS011;4559;47.252;9.592;2022-07-24T14:07:14;6.50;;;5.10;;
9048;SDS011;4559;47.252;9.592;2022-07-24T14:09:39;6.00;;;4.40;;
9048;SDS011;4559;47.252;9.592;2022-07-24T14:12:05;5.57;;;4.32;;
9048;SDS011;4559;47.252;9.592;2022-07-24T14:14:31;5.15;;;4.65;;
9048;SDS011;4559;47.252;9.592;2022-07-24T14:16:57;4.97;;;4.47;;
9048;SDS011;4559;47.252;9.592;2022-07-24T14:19:22;5.63;;;4.60;;
9048;SDS011;4559;47.252;9.592;2022-07-24T14:21:48;5.80;;;4.82;;
9048;SDS011;4559;47.252;9.592;2022-07-24T14:24:15;8.13;;;5.65;;
9048;SDS011;4559;47.252;9.592;2022-07-24T14:26:42;5.57;;;4.97;;
9048;SDS011;4559;47.252;9.592;2022-07-24T14:29:08;5.25;;;4.70;;
9048;SDS011;4559;47.252;9.592;2022-07-24T14:31:34;4.93;;;4.43;;
9048;SDS011;4559;47.252;9.592;2022-07-24T14:34:00;4.63;;;4.20;;
9048;SDS011;4559;47.252;9.592;2022-07-24T14:36:25;20.60;;;18.50;;
9048;SDS011;4559;47.252;9.592;2022-07-24T14:38:51;46.50;;;38.30;;
9048;SDS011;4559;47.252;9.592;2022-07-24T14:41:16;72.40;;;48.70;;
9048;SDS011;4559;47.252;9.592;2022-07-24T14:43:42;62.17;;;50.00;;
9048;SDS011;4559;47.252;9.592;2022-07-24T14:46:08;27.13;;;18.83;;
9048;SDS011;4559;47.252;9.592;2022-07-24T14:48:33;15.80;;;10.83;;
9048;SDS011;4559;47.252;9.592;2022-07-24T14:50:59;33.60;;;30.33;;
9048;SDS011;4559;47.252;9.592;2022-07-24T14:53:24;14.13;;;10.60;;
9048;SDS011;4559;47.252;9.592;2022-07-24T14:55:50;5.90;;;5.20;;
9048;SDS011;4559;47.252;9.592;2022-07-24T14:58:15;4.97;;;4.43;;
9048;SDS011;4559;47.252;9.592;2022-07-24T15:00:41;5.10;;;4.60;;
9048;SDS011;4559;47.252;9.592;2022-07-24T15:03:06;5.43;;;4.85;;
9048;SDS011;4559;47.252;9.592;2022-07-24T15:05:32;5.07;;;4.57;;
9048;SDS011;4559;47.252;9.592;2022-07-24T15:07:58;7.70;;;6.13;;
9048;SDS011;4559;47.252;9.592;2022-07-24T15:10:23;5.63;;;5.03;;
9048;SDS011;4559;47.252;9.592;2022-07-24T15:12:49;5.23;;;4.73;;
9048;SDS011;4559;47.252;9.592;2022-07-24T15:15:15;5.17;;;4.67;;
9048;SDS011;4559;47.252;9.592;2022-07-24T15:17:40;5.00;;;4.50;;
9048;SDS011;4559;47.252;9.592;2022-07-24T15:20:06;4.73;;;4.23;;
9048;SDS011;4559;47.252;9.592;2022-07-24T15:22:32;4.90;;;3.92;;
9048;SDS011;4559;47.252;9.592;2022-07-24T15:24:58;9.52;;;5.00;;
9048;SDS011;4559;47.252;9.592;2022-07-24T15:27:23;4.88;;;4.43;;
9048;SDS011;4559;47.252;9.592;2022-07-24T15:29:49;6.77;;;5.40;;
9048;SDS011;4559;47.252;9.592;2022-07-24T15:32:14;6.40;;;5.20;;
9048;SDS011;4559;47.252;9.592;2022-07-24T15:34:40;6.00;;;4.93;;
9048;SDS011;4559;47.252;9.592;2022-07-24T15:37:05;4.70;;;4.10;;
9048;SDS011;4559;47.252;9.592;2022-07-24T15:39:34;5.35;;;4.85;;
9048;SDS011;4559;47.252;9.592;2022-07-24T15:41:59;5.10;;;4.60;;
9048;SDS011;4559;47.252;9.592;2022-07-24T15:44:25;4.57;;;4.13;;
9048;SDS011;4559;47.252;9.592;2022-07-24T15:46:51;6.10;;;5.27;;
9048;SDS011;4559;47.252;9.592;2022-07-24T15:49:16;4.50;;;4.10;;
9048;SDS011;4559;47.252;9.592;2022-07-24T15:51:42;4.63;;;4.22;;
9048;SDS011;4559;47.252;9.592;2022-07-24T15:54:07;7.00;;;5.35;;
9048;SDS011;4559;47.252;9.592;2022-07-24T15:56:33;6.38;;;4.70;;
9048;SDS011;4559;47.252;9.592;2022-07-24T15:58:59;6.47;;;5.60;;
9048;SDS011;4559;47.252;9.592;2022-07-24T16:01:24;5.32;;;4.50;;
9048;SDS011;4559;47.252;9.592;2022-07-24T16:03:50;5.07;;;4.20;;
9048;SDS011;4559;47.252;9.592;2022-07-24T16:06:16;5.25;;;4.75;;
9048;SDS011;4559;47.252;9.592;2022-07-24T16:08:41;6.13;;;5.10;;
9048;SDS011;4559;47.252;9.592;2022-07-24T16:11:07;4.97;;;4.47;;
9048;SDS011;4559;47.252;9.592;2022-07-24T16:13:32;6.17;;;4.80;;